sensor_id;sensor_type;location;lat;lon;timestamp;pressure;altitude;pressure_sealevel;temperature;humidity
29461;BME280;16428;47.836;35.106;2022-11-15T00:00:20;102260.28;;;3.78;100.00
29461;BME280;16428;47.836;35.106;2022-11-15T00:02:55;102256.69;;;3.79;100.00
29461;BME280;16428;47.836;35.106;2022-11-15T00:05:37;102259.88;;;3.84;100.00
29461;BME280;16428;47.836;35.106;2022-11-15T00:08:06;102263.31;;;3.86;100.00
29461;BME280;16428;47.836;35.106;2022-11-15T00:10:38;102257.63;;;3.92;100.00
29461;BME280;16428;47.836;35.106;2022-11-15T00:13:15;102250.41;;;3.94;100.00
29461;BME280;16428;47.836;35.106;2022-11-15T00:15:44;102257.81;;;3.75;100.00
29461;BME280;16428;47.836;35.106;2022-11-15T00:18:19;102254.47;;;3.85;100.00
29461;BME280;16428;47.836;35.106;2022-11-15T00:20:50;102252.50;;;3.75;100.00
29461;BME280;16428;47.836;35.106;2022-11-15T00:23:22;102259.63;;;3.74;100.00
29461;BME280;16428;47.836;35.106;2022-11-15T00:25:58;102253.34;;;3.61;100.00
29461;BME280;16428;47.836;35.106;2022-11-15T00:28:31;102258.00;;;3.58;100.00
29461;BME280;16428;47.836;35.106;2022-11-15T00:31:08;102260.84;;;3.69;100.00
29461;BME280;16428;47.836;35.106;2022-11-15T00:33:43;102255.94;;;3.63;100.00
29461;BME280;16428;47.836;35.106;2022-11-15T00:36:14;102252.22;;;3.65;100.00
29461;BME280;16428;47.836;35.106;2022-11-15T00:38:44;102250.31;;;3.53;100.00
29461;BME280;16428;47.836;35.106;2022-11-15T00:41:13;102257.81;;;3.46;100.00
29461;BME280;16428;47.836;35.106;2022-11-15T00:43:44;102251.38;;;3.50;100.00
29461;BME280;16428;47.836;35.106;2022-11-15T00:46:12;102258.00;;;3.58;100.00
29461;BME280;16428;47.836;35.106;2022-11-15T00:48:43;102254.75;;;3.38;100.00
29461;BME280;16428;47.836;35.106;2022-11-15T00:51:12;102247.47;;;3.42;100.00
29461;BME280;16428;47.836;35.106;2022-11-15T00:53:47;102243.69;;;3.46;100.00
29461;BME280;16428;47.836;35.106;2022-11-15T00:56:17;102238.53;;;3.43;100.00
29461;BME280;16428;47.836;35.106;2022-11-15T00:58:49;102243.09;;;3.41;100.00
29461;BME280;16428;47.836;35.106;2022-11-15T01:01:18;102245.63;;;3.28;100.00
29461;BME280;16428;47.836;35.106;2022-11-15T01:03:49;102237.28;;;3.20;100.00
29461;BME280;16428;47.836;35.106;2022-11-15T01:06:17;102243.34;;;3.22;100.00
29461;BME280;16428;47.836;35.106;2022-11-15T01:08:47;102243.16;;;3.25;100.00
29461;BME280;16428;47.836;35.106;2022-11-15T01:11:16;102238.63;;;3.27;100.00
29461;BME280;16428;47.836;35.106;2022-11-15T01:13:47;102242.53;;;3.06;100.00
29461;BME280;16428;47.836;35.106;2022-11-15T01:16:17;102233.25;;;2.99;100.00
29461;BME280;16428;47.836;35.106;2022-11-15T01:28:13;102226.50;;;2.93;100.00
29461;BME280;16428;47.836;35.106;2022-11-15T01:30:44;102230.78;;;2.96;100.00
29461;BME280;16428;47.836;35.106;2022-11-15T01:37:02;102223.53;;;2.83;100.00
29461;BME280;16428;47.836;35.106;2022-11-15T01:39:34;102225.25;;;2.85;100.00
29461;BME280;16428;47.836;35.106;2022-11-15T01:42:09;102225.44;;;2.81;100.00
29461;BME280;16428;47.836;35.106;2022-11-15T01:44:44;102220.47;;;2.75;100.00
29461;BME280;16428;47.836;35.106;2022-11-15T01:47:35;102219.13;;;2.68;100.00
29461;BME280;16428;47.836;35.106;2022-11-15T01:50:14;102222.38;;;2.73;100.00
29461;BME280;16428;47.836;35.106;2022-11-15T01:52:47;102231.03;;;2.91;100.00
29461;BME280;16428;47.836;35.106;2022-11-15T01:55:23;102227.34;;;2.94;100.00
29461;BME280;16428;47.836;35.106;2022-11-15T01:58:05;102226.03;;;2.87;100.00
29461;BME280;16428;47.836;35.106;2022-11-15T02:00:45;102233.22;;;2.85;100.00
29461;BME280;16428;47.836;35.106;2022-11-15T02:03:26;102242.13;;;2.83;100.00
29461;BME280;16428;47.836;35.106;2022-11-15T02:06:05;102239.47;;;2.83;100.00
29461;BME280;16428;47.836;35.106;2022-11-15T02:08:36;102233.81;;;2.90;100.00
29461;BME280;16428;47.836;35.106;2022-11-15T02:11:09;102234.88;;;2.71;100.00
29461;BME280;16428;47.836;35.106;2022-11-15T02:13:41;102241.63;;;2.77;100.00
29461;BME280;16428;47.836;35.106;2022-11-15T02:30:47;102240.69;;;2.62;100.00
29461;BME280;16428;47.836;35.106;2022-11-15T02:33:59;102249.56;;;2.77;100.00
29461;BME280;16428;47.836;35.106;2022-11-15T02:37:14;102244.91;;;2.66;100.00
29461;BME280;16428;47.836;35.106;2022-11-15T02:40:27;102255.44;;;2.52;100.00
29461;BME280;16428;47.836;35.106;2022-11-15T02:43:12;102242.97;;;2.54;100.00
29461;BME280;16428;47.836;35.106;2022-11-15T02:46:28;102245.44;;;2.57;100.00
29461;BME280;16428;47.836;35.106;2022-11-15T02:49:29;102233.47;;;2.50;100.00
29461;BME280;16428;47.836;35.106;2022-11-15T02:52:03;102253.91;;;2.32;100.00
29461;BME280;16428;47.836;35.106;2022-11-15T02:54:34;102237.84;;;2.35;100.00
29461;BME280;16428;47.836;35.106;2022-11-15T02:57:12;102256.31;;;2.21;100.00
29461;BME280;16428;47.836;35.106;2022-11-15T03:08:59;102273.94;;;2.38;100.00
29461;BME280;16428;47.836;35.106;2022-11-15T03:11:38;102260.44;;;2.42;100.00
29461;BME280;16428;47.836;35.106;2022-11-15T03:14:23;102270.34;;;2.39;100.00
29461;BME280;16428;47.836;35.106;2022-11-15T03:19:47;102272.16;;;2.23;100.00
29461;BME280;16428;47.836;35.106;2022-11-15T03:22:21;102271.38;;;2.21;100.00
29461;BME280;16428;47.836;35.106;2022-11-15T03:24:59;102277.22;;;2.27;100.00
29461;BME280;16428;47.836;35.106;2022-11-15T03:27:36;102273.94;;;2.22;100.00
29461;BME280;16428;47.836;35.106;2022-11-15T03:30:09;102282.41;;;2.13;100.00
29461;BME280;16428;47.836;35.106;2022-11-15T03:32:56;102258.72;;;2.26;100.00
29461;BME280;16428;47.836;35.106;2022-11-15T03:35:28;102263.88;;;2.13;100.00
29461;BME280;16428;47.836;35.106;2022-11-15T03:38:26;102279.41;;;2.03;100.00
29461;BME280;16428;47.836;35.106;2022-11-15T03:41:13;102272.91;;;2.09;100.00
29461;BME280;16428;47.836;35.106;2022-11-15T03:47:10;102267.09;;;2.18;100.00
29461;BME280;16428;47.836;35.106;2022-11-15T03:49:44;102270.84;;;2.14;100.00
29461;BME280;16428;47.836;35.106;2022-11-15T03:52:18;102276.00;;;2.17;100.00
29461;BME280;16428;47.836;35.106;2022-11-15T03:54:51;102276.50;;;2.24;100.00
29461;BME280;16428;47.836;35.106;2022-11-15T03:57:22;102272.56;;;2.31;100.00
29461;BME280;16428;47.836;35.106;2022-11-15T03:59:54;102268.03;;;2.33;100.00
29461;BME280;16428;47.836;35.106;2022-11-15T04:02:28;102267.25;;;2.31;100.00
29461;BME280;16428;47.836;35.106;2022-11-15T04:05:01;102265.06;;;2.39;100.00
29461;BME280;16428;47.836;35.106;2022-11-15T04:07:31;102263.50;;;2.35;100.00
29461;BME280;16428;47.836;35.106;2022-11-15T04:10:07;102258.56;;;2.29;100.00
29461;BME280;16428;47.836;35.106;2022-11-15T04:12:42;102258.56;;;2.29;100.00
29461;BME280;16428;47.836;35.106;2022-11-15T04:15:15;102257.03;;;2.25;100.00
29461;BME280;16428;47.836;35.106;2022-11-15T04:17:55;102261.63;;;2.37;100.00
29461;BME280;16428;47.836;35.106;2022-11-15T04:20:27;102262.41;;;2.39;100.00
29461;BME280;16428;47.836;35.106;2022-11-15T04:23:23;102254.44;;;2.39;100.00
29461;BME280;16428;47.836;35.106;2022-11-15T04:26:19;102250.84;;;2.40;100.00
29461;BME280;16428;47.836;35.106;2022-11-15T04:28:51;102250.50;;;2.30;100.00
29461;BME280;16428;47.836;35.106;2022-11-15T04:31:44;102248.59;;;2.48;100.00
29461;BME280;16428;47.836;35.106;2022-11-15T04:34:19;102238.25;;;2.59;100.00
29461;BME280;16428;47.836;35.106;2022-11-15T04:36:59;102249.19;;;2.69;100.00
29461;BME280;16428;47.836;35.106;2022-11-15T04:39:43;102244.66;;;2.55;100.00
29461;BME280;16428;47.836;35.106;2022-11-15T04:42:14;102256.13;;;2.71;100.00
29461;BME280;16428;47.836;35.106;2022-11-15T04:44:44;102246.00;;;2.62;100.00
29461;BME280;16428;47.836;35.106;2022-11-15T04:47:15;102247.25;;;2.57;100.00
29461;BME280;16428;47.836;35.106;2022-11-15T04:49:45;102248.59;;;2.48;100.00
29461;BME280;16428;47.836;35.106;2022-11-15T04:52:23;102254.44;;;2.39;100.00
29461;BME280;16428;47.836;35.106;2022-11-15T04:54:54;102249.38;;;2.34;100.00
29461;BME280;16428;47.836;35.106;2022-11-15T04:57:33;102250.16;;;2.52;100.00
29461;BME280;16428;47.836;35.106;2022-11-15T05:00:05;102248.38;;;2.37;100.00
29461;BME280;16428;47.836;35.106;2022-11-15T05:02:38;102257.34;;;2.34;100.00
29461;BME280;16428;47.836;35.106;2022-11-15T05:05:45;102249.63;;;2.30;100.00
29461;BME280;16428;47.836;35.106;2022-11-15T05:08:15;102256.66;;;2.31;100.00
29461;BME280;16428;47.836;35.106;2022-11-15T05:10:48;102262.16;;;2.28;100.00
29461;BME280;16428;47.836;35.106;2022-11-15T05:13:23;102265.75;;;2.27;100.00
29461;BME280;16428;47.836;35.106;2022-11-15T05:15:53;102274.72;;;2.40;100.00
29461;BME280;16428;47.836;35.106;2022-11-15T05:18:24;102275.13;;;2.48;100.00
29461;BME280;16428;47.836;35.106;2022-11-15T05:21:11;102265.13;;;2.37;100.00
29461;BME280;16428;47.836;35.106;2022-11-15T05:23:43;102268.63;;;2.38;100.00
29461;BME280;16428;47.836;35.106;2022-11-15T05:26:12;102274.44;;;2.44;100.00
29461;BME280;16428;47.836;35.106;2022-11-15T05:28:43;102272.06;;;2.40;100.00
29461;BME280;16428;47.836;35.106;2022-11-15T05:31:15;102275.66;;;2.39;100.00
29461;BME280;16428;47.836;35.106;2022-11-15T05:34:22;102268.81;;;2.35;100.00
29461;BME280;16428;47.836;35.106;2022-11-15T05:37:46;102278.66;;;2.33;100.00
29461;BME280;16428;47.836;35.106;2022-11-15T05:40:46;102280.50;;;2.62;100.00
29461;BME280;16428;47.836;35.106;2022-11-15T05:44:07;102267.34;;;2.45;100.00
29461;BME280;16428;47.836;35.106;2022-11-15T05:47:15;102270.53;;;2.36;100.00
29461;BME280;16428;47.836;35.106;2022-11-15T05:50:07;102273.09;;;2.53;100.00
29461;BME280;16428;47.836;35.106;2022-11-15T05:53:03;102270.69;;;2.48;100.00
29461;BME280;16428;47.836;35.106;2022-11-15T05:55:47;102262.63;;;2.50;100.00
29461;BME280;16428;47.836;35.106;2022-11-15T05:58:23;102267.28;;;2.76;100.00
29461;BME280;16428;47.836;35.106;2022-11-15T06:01:22;102272.28;;;2.67;100.00
29461;BME280;16428;47.836;35.106;2022-11-15T06:04:21;102270.25;;;2.56;100.00
29461;BME280;16428;47.836;35.106;2022-11-15T06:16:07;102276.41;;;3.02;100.00
29461;BME280;16428;47.836;35.106;2022-11-15T06:19:41;102281.47;;;3.21;100.00
29461;BME280;16428;47.836;35.106;2022-11-15T06:23:12;102278.81;;;3.21;100.00
29461;BME280;16428;47.836;35.106;2022-11-15T06:26:11;102280.53;;;3.36;100.00
29461;BME280;16428;47.836;35.106;2022-11-15T06:29:14;102275.81;;;3.41;100.00
29461;BME280;16428;47.836;35.106;2022-11-15T06:31:51;102277.34;;;3.45;100.00
29461;BME280;16428;47.836;35.106;2022-11-15T06:35:15;102273.00;;;3.87;100.00
29461;BME280;16428;47.836;35.106;2022-11-15T06:54:22;102264.72;;;4.47;100.00
29461;BME280;16428;47.836;35.106;2022-11-15T06:57:21;102265.56;;;4.74;100.00
29461;BME280;16428;47.836;35.106;2022-11-15T07:00:16;102269.09;;;4.75;100.00
29461;BME280;16428;47.836;35.106;2022-11-15T07:09:01;102259.09;;;4.78;100.00
29461;BME280;16428;47.836;35.106;2022-11-15T07:12:11;102261.16;;;4.87;100.00
29461;BME280;16428;47.836;35.106;2022-11-15T07:15:09;102253.41;;;4.97;100.00
29461;BME280;16428;47.836;35.106;2022-11-15T07:18:18;102256.63;;;5.15;99.71
29461;BME280;16428;47.836;35.106;2022-11-15T07:21:17;102259.00;;;5.32;98.28
29461;BME280;16428;47.836;35.106;2022-11-15T07:24:09;102263.03;;;5.25;99.21
29461;BME280;16428;47.836;35.106;2022-11-15T07:26:54;102255.88;;;5.13;97.37
29461;BME280;16428;47.836;35.106;2022-11-15T07:29:52;102251.81;;;5.20;99.21
29461;BME280;16428;47.836;35.106;2022-11-15T07:32:59;102257.69;;;5.25;98.74
29461;BME280;16428;47.836;35.106;2022-11-15T07:36:16;102256.31;;;5.19;99.95
29461;BME280;16428;47.836;35.106;2022-11-15T07:39:19;102249.28;;;5.18;99.46
29461;BME280;16428;47.836;35.106;2022-11-15T07:42:16;102248.44;;;5.43;97.61
29461;BME280;16428;47.836;35.106;2022-11-15T07:45:43;102260.59;;;5.73;97.50
29461;BME280;16428;47.836;35.106;2022-11-15T07:48:41;102255.56;;;5.55;95.65
29461;BME280;16428;47.836;35.106;2022-11-15T07:51:39;102253.41;;;5.86;94.39
29461;BME280;16428;47.836;35.106;2022-11-15T07:54:37;102252.69;;;5.71;94.61
29461;BME280;16428;47.836;35.106;2022-11-15T07:57:36;102258.81;;;6.22;89.87
29461;BME280;16428;47.836;35.106;2022-11-15T08:00:41;102254.63;;;6.31;90.24
29461;BME280;16428;47.836;35.106;2022-11-15T08:03:38;102259.56;;;6.24;88.44
29461;BME280;16428;47.836;35.106;2022-11-15T08:06:35;102261.44;;;6.35;90.81
29461;BME280;16428;47.836;35.106;2022-11-15T08:09:31;102254.19;;;6.61;89.89
29461;BME280;16428;47.836;35.106;2022-11-15T08:12:28;102243.09;;;6.78;88.16
29461;BME280;16428;47.836;35.106;2022-11-15T08:15:28;102234.34;;;6.76;88.73
29461;BME280;16428;47.836;35.106;2022-11-15T08:18:39;102232.91;;;6.72;86.97
29461;BME280;16428;47.836;35.106;2022-11-15T08:21:37;102233.81;;;6.95;86.99
29461;BME280;16428;47.836;35.106;2022-11-15T08:24:37;102219.69;;;7.28;87.02
29461;BME280;16428;47.836;35.106;2022-11-15T08:27:20;102216.03;;;7.18;85.38
29461;BME280;16428;47.836;35.106;2022-11-15T08:30:15;102221.69;;;7.48;84.10
29461;BME280;16428;47.836;35.106;2022-11-15T08:37:05;102214.13;;;7.64;84.28
29461;BME280;16428;47.836;35.106;2022-11-15T08:43:36;102192.13;;;7.94;81.65
29461;BME280;16428;47.836;35.106;2022-11-15T08:46:35;102194.56;;;8.40;80.48
29461;BME280;16428;47.836;35.106;2022-11-15T08:49:35;102191.88;;;8.72;76.92
29461;BME280;16428;47.836;35.106;2022-11-15T08:52:32;102187.34;;;8.84;75.60
29461;BME280;16428;47.836;35.106;2022-11-15T08:55:54;102186.56;;;9.14;73.22
29461;BME280;16428;47.836;35.106;2022-11-15T08:58:53;102178.09;;;9.39;70.70
29461;BME280;16428;47.836;35.106;2022-11-15T09:01:49;102173.19;;;9.24;69.88
29461;BME280;16428;47.836;35.106;2022-11-15T09:04:47;102171.72;;;9.71;69.49
29461;BME280;16428;47.836;35.106;2022-11-15T09:07:46;102165.31;;;10.02;64.88
29461;BME280;16428;47.836;35.106;2022-11-15T09:10:47;102155.81;;;10.38;64.16
29461;BME280;16428;47.836;35.106;2022-11-15T09:13:43;102156.84;;;10.07;64.05
29461;BME280;16428;47.836;35.106;2022-11-15T09:16:40;102147.81;;;10.08;65.08
29461;BME280;16428;47.836;35.106;2022-11-15T09:19:38;102140.09;;;10.43;63.15
29461;BME280;16428;47.836;35.106;2022-11-15T09:22:59;102137.97;;;10.56;63.22
29461;BME280;16428;47.836;35.106;2022-11-15T09:26:03;102139.22;;;10.72;61.18
29461;BME280;16428;47.836;35.106;2022-11-15T09:28:53;102138.97;;;10.65;61.14
29461;BME280;16428;47.836;35.106;2022-11-15T09:31:54;102134.69;;;10.82;60.31
29461;BME280;16428;47.836;35.106;2022-11-15T09:34:55;102131.91;;;11.20;58.88
29461;BME280;16428;47.836;35.106;2022-11-15T09:38:06;102135.72;;;11.18;58.62
29461;BME280;16428;47.836;35.106;2022-11-15T09:41:13;102129.91;;;11.22;58.88
29461;BME280;16428;47.836;35.106;2022-11-15T09:44:55;102139.41;;;11.54;59.63
29461;BME280;16428;47.836;35.106;2022-11-15T09:51:57;102123.84;;;11.48;56.94
29461;BME280;16428;47.836;35.106;2022-11-15T09:55:10;102114.63;;;11.60;55.37
29461;BME280;16428;47.836;35.106;2022-11-15T09:58:02;102101.22;;;11.13;56.62
29461;BME280;16428;47.836;35.106;2022-11-15T10:01:12;102095.84;;;11.13;56.42
29461;BME280;16428;47.836;35.106;2022-11-15T10:04:25;102078.72;;;11.14;57.60
29461;BME280;16428;47.836;35.106;2022-11-15T10:11:00;102090.69;;;11.84;54.88
29461;BME280;16428;47.836;35.106;2022-11-15T10:14:08;102084.19;;;11.77;54.40
29461;BME280;16428;47.836;35.106;2022-11-15T10:23:41;102068.53;;;12.44;53.98
29461;BME280;16428;47.836;35.106;2022-11-15T10:26:37;102070.59;;;12.50;53.20
29461;BME280;16428;47.836;35.106;2022-11-15T10:29:33;102058.53;;;12.36;52.46
29461;BME280;16428;47.836;35.106;2022-11-15T10:32:37;102056.31;;;12.31;52.74
29461;BME280;16428;47.836;35.106;2022-11-15T10:35:34;102053.47;;;12.85;52.26
29461;BME280;16428;47.836;35.106;2022-11-15T10:38:56;102031.31;;;12.04;53.34
29461;BME280;16428;47.836;35.106;2022-11-15T10:56:06;102024.72;;;12.24;53.53
29461;BME280;16428;47.836;35.106;2022-11-15T11:05:38;102004.28;;;12.83;52.75
29461;BME280;16428;47.836;35.106;2022-11-15T11:09:58;102004.72;;;12.09;53.27
29461;BME280;16428;47.836;35.106;2022-11-15T11:14:05;101990.22;;;11.84;54.51
29461;BME280;16428;47.836;35.106;2022-11-15T11:17:48;101978.69;;;11.46;57.70
29461;BME280;16428;47.836;35.106;2022-11-15T11:21:08;101975.09;;;11.10;58.56
29461;BME280;16428;47.836;35.106;2022-11-15T11:24:34;101970.25;;;11.41;56.92
29461;BME280;16428;47.836;35.106;2022-11-15T11:31:26;101960.72;;;11.29;57.13
29461;BME280;16428;47.836;35.106;2022-11-15T11:44:28;101939.22;;;11.19;58.18
29461;BME280;16428;47.836;35.106;2022-11-15T11:47:39;101943.19;;;11.43;56.96
29461;BME280;16428;47.836;35.106;2022-11-15T11:50:43;101945.09;;;11.33;57.94
29461;BME280;16428;47.836;35.106;2022-11-15T11:57:41;101927.81;;;11.53;55.78
29461;BME280;16428;47.836;35.106;2022-11-15T12:01:18;101925.56;;;11.13;57.29
29461;BME280;16428;47.836;35.106;2022-11-15T12:04:38;101917.72;;;11.19;58.13
29461;BME280;16428;47.836;35.106;2022-11-15T12:07:39;101917.34;;;11.50;57.09
29461;BME280;16428;47.836;35.106;2022-11-15T12:10:58;101907.66;;;11.21;56.79
29461;BME280;16428;47.836;35.106;2022-11-15T12:14:19;101911.72;;;11.61;56.68
29461;BME280;16428;47.836;35.106;2022-11-15T12:17:25;101914.13;;;11.28;56.94
29461;BME280;16428;47.836;35.106;2022-11-15T12:26:16;101896.81;;;11.13;56.17
29461;BME280;16428;47.836;35.106;2022-11-15T12:32:59;101889.34;;;11.07;56.48
29461;BME280;16428;47.836;35.106;2022-11-15T12:36:10;101890.94;;;11.00;57.87
29461;BME280;16428;47.836;35.106;2022-11-15T12:39:15;101884.56;;;10.83;57.70
29461;BME280;16428;47.836;35.106;2022-11-15T12:45:37;101873.69;;;11.20;57.62
29461;BME280;16428;47.836;35.106;2022-11-15T12:55:30;101859.00;;;10.70;59.35
29461;BME280;16428;47.836;35.106;2022-11-15T12:59:01;101857.34;;;10.69;58.89
29461;BME280;16428;47.836;35.106;2022-11-15T13:02:31;101849.53;;;10.48;61.01
29461;BME280;16428;47.836;35.106;2022-11-15T13:06:33;101836.38;;;10.08;61.67
29461;BME280;16428;47.836;35.106;2022-11-15T13:13:45;101834.50;;;9.62;64.92
29461;BME280;16428;47.836;35.106;2022-11-15T13:21:39;101817.31;;;9.45;66.37
29461;BME280;16428;47.836;35.106;2022-11-15T13:34:50;101822.38;;;9.29;67.58
29461;BME280;16428;47.836;35.106;2022-11-15T13:37:55;101802.47;;;9.22;67.84
29461;BME280;16428;47.836;35.106;2022-11-15T13:41:23;101807.13;;;9.20;67.93
29461;BME280;16428;47.836;35.106;2022-11-15T13:44:31;101803.19;;;9.24;68.32
29461;BME280;16428;47.836;35.106;2022-11-15T13:47:29;101795.41;;;9.01;70.13
29461;BME280;16428;47.836;35.106;2022-11-15T13:50:54;101798.66;;;8.95;70.95
29461;BME280;16428;47.836;35.106;2022-11-15T13:54:14;101791.88;;;8.91;71.39
29461;BME280;16428;47.836;35.106;2022-11-15T13:57:46;101779.06;;;8.85;72.19
29461;BME280;16428;47.836;35.106;2022-11-15T14:00:57;101783.41;;;8.86;72.40
29461;BME280;16428;47.836;35.106;2022-11-15T14:04:33;101775.81;;;8.81;72.76
29461;BME280;16428;47.836;35.106;2022-11-15T14:10:42;101759.56;;;8.64;74.26
29461;BME280;16428;47.836;35.106;2022-11-15T14:17:04;101754.03;;;8.36;76.83
29461;BME280;16428;47.836;35.106;2022-11-15T14:20:01;101752.84;;;8.29;77.68
29461;BME280;16428;47.836;35.106;2022-11-15T14:23:27;101746.88;;;8.06;79.81
29461;BME280;16428;47.836;35.106;2022-11-15T14:26:02;101746.81;;;7.97;80.69
29461;BME280;16428;47.836;35.106;2022-11-15T14:28:53;101737.66;;;7.90;81.75
29461;BME280;16428;47.836;35.106;2022-11-15T14:31:48;101741.84;;;7.83;84.90
29461;BME280;16428;47.836;35.106;2022-11-15T14:34:21;101743.72;;;7.61;85.94
29461;BME280;16428;47.836;35.106;2022-11-15T14:37:26;101730.00;;;7.75;85.66
29461;BME280;16428;47.836;35.106;2022-11-15T14:40:23;101729.88;;;7.87;85.63
29461;BME280;16428;47.836;35.106;2022-11-15T14:43:20;101726.94;;;7.59;86.86
29461;BME280;16428;47.836;35.106;2022-11-15T14:46:06;101727.56;;;7.42;88.54
29461;BME280;16428;47.836;35.106;2022-11-15T14:48:55;101713.94;;;7.24;90.00
29461;BME280;16428;47.836;35.106;2022-11-15T14:51:38;101711.00;;;7.06;90.52
29461;BME280;16428;47.836;35.106;2022-11-15T14:54:22;101708.94;;;7.10;91.18
29461;BME280;16428;47.836;35.106;2022-11-15T14:57:00;101704.03;;;6.94;92.05
29461;BME280;16428;47.836;35.106;2022-11-15T14:59:59;101700.63;;;6.92;92.20
29461;BME280;16428;47.836;35.106;2022-11-15T15:02:32;101702.91;;;6.76;93.64
29461;BME280;16428;47.836;35.106;2022-11-15T15:05:42;101689.81;;;6.73;93.97
29461;BME280;16428;47.836;35.106;2022-11-15T15:09:10;101694.47;;;6.60;94.86
29461;BME280;16428;47.836;35.106;2022-11-15T15:11:55;101698.03;;;6.49;95.73
29461;BME280;16428;47.836;35.106;2022-11-15T15:14:35;101685.31;;;6.74;93.85
29461;BME280;16428;47.836;35.106;2022-11-15T15:20:28;101685.84;;;6.67;94.05
29461;BME280;16428;47.836;35.106;2022-11-15T15:23:00;101682.06;;;6.70;94.40
29461;BME280;16428;47.836;35.106;2022-11-15T15:25:48;101670.22;;;6.84;92.96
29461;BME280;16428;47.836;35.106;2022-11-15T15:28:23;101668.84;;;6.89;92.74
29461;BME280;16428;47.836;35.106;2022-11-15T15:31:12;101671.63;;;6.88;92.43
29461;BME280;16428;47.836;35.106;2022-11-15T15:33:44;101667.16;;;6.88;93.54
29461;BME280;16428;47.836;35.106;2022-11-15T15:36:40;101665.00;;;6.82;93.52
29461;BME280;16428;47.836;35.106;2022-11-15T15:39:20;101665.50;;;6.76;93.81
29461;BME280;16428;47.836;35.106;2022-11-15T15:41:49;101665.25;;;6.79;93.88
29461;BME280;16428;47.836;35.106;2022-11-15T15:44:35;101661.16;;;6.75;94.88
29461;BME280;16428;47.836;35.106;2022-11-15T15:47:16;101652.16;;;6.76;94.60
29461;BME280;16428;47.836;35.106;2022-11-15T15:49:48;101655.94;;;6.53;96.05
29461;BME280;16428;47.836;35.106;2022-11-15T15:52:20;101664.13;;;6.61;96.11
29461;BME280;16428;47.836;35.106;2022-11-15T15:54:52;101652.28;;;6.54;96.88
29461;BME280;16428;47.836;35.106;2022-11-15T15:57:24;101653.44;;;6.61;96.11
29461;BME280;16428;47.836;35.106;2022-11-15T16:00:09;101645.25;;;6.53;96.52
29461;BME280;16428;47.836;35.106;2022-11-15T16:02:50;101657.53;;;6.44;97.34
29461;BME280;16428;47.836;35.106;2022-11-15T16:05:33;101652.34;;;6.31;98.36
29461;BME280;16428;47.836;35.106;2022-11-15T16:08:20;101645.94;;;6.34;99.36
29461;BME280;16428;47.836;35.106;2022-11-15T16:10:52;101644.16;;;6.23;99.78
29461;BME280;16428;47.836;35.106;2022-11-15T16:13:27;101637.00;;;6.24;100.00
29461;BME280;16428;47.836;35.106;2022-11-15T16:16:21;101642.94;;;6.16;100.00
29461;BME280;16428;47.836;35.106;2022-11-15T16:19:08;101637.50;;;6.18;100.00
29461;BME280;16428;47.836;35.106;2022-11-15T16:22:17;101634.94;;;6.16;100.00
29461;BME280;16428;47.836;35.106;2022-11-15T16:24:55;101640.50;;;6.24;100.00
29461;BME280;16428;47.836;35.106;2022-11-15T16:27:38;101635.88;;;6.26;99.35
29461;BME280;16428;47.836;35.106;2022-11-15T16:30:41;101641.00;;;6.18;100.00
29461;BME280;16428;47.836;35.106;2022-11-15T16:33:26;101636.59;;;6.28;100.00
29461;BME280;16428;47.836;35.106;2022-11-15T16:36:25;101635.19;;;6.24;100.00
29461;BME280;16428;47.836;35.106;2022-11-15T16:39:15;101635.75;;;6.28;100.00
29461;BME280;16428;47.836;35.106;2022-11-15T16:41:53;101625.69;;;6.31;100.00
29461;BME280;16428;47.836;35.106;2022-11-15T16:44:36;101628.56;;;6.40;100.00
29461;BME280;16428;47.836;35.106;2022-11-15T16:47:25;101620.03;;;6.46;100.00
29461;BME280;16428;47.836;35.106;2022-11-15T16:50:21;101624.53;;;6.45;100.00
29461;BME280;16428;47.836;35.106;2022-11-15T16:53:07;101612.81;;;6.37;100.00
29461;BME280;16428;47.836;35.106;2022-11-15T16:55:55;101611.84;;;6.38;100.00
29461;BME280;16428;47.836;35.106;2022-11-15T16:58:25;101601.88;;;6.40;100.00
29461;BME280;16428;47.836;35.106;2022-11-15T17:01:00;101605.78;;;6.35;100.00
29461;BME280;16428;47.836;35.106;2022-11-15T17:03:42;101597.66;;;6.37;100.00
29461;BME280;16428;47.836;35.106;2022-11-15T17:06:14;101605.34;;;6.19;100.00
29461;BME280;16428;47.836;35.106;2022-11-15T17:08:46;101607.28;;;6.17;100.00
29461;BME280;16428;47.836;35.106;2022-11-15T17:11:21;101605.34;;;6.19;100.00
29461;BME280;16428;47.836;35.106;2022-11-15T17:13:59;101595.78;;;6.17;100.00
29461;BME280;16428;47.836;35.106;2022-11-15T17:16:42;101600.50;;;6.13;100.00
29461;BME280;16428;47.836;35.106;2022-11-15T17:19:25;101599.41;;;6.16;100.00
29461;BME280;16428;47.836;35.106;2022-11-15T17:21:55;101595.47;;;6.10;100.00
29461;BME280;16428;47.836;35.106;2022-11-15T17:24:27;101591.72;;;6.02;100.00
29461;BME280;16428;47.836;35.106;2022-11-15T17:27:06;101586.19;;;6.14;100.00
29461;BME280;16428;47.836;35.106;2022-11-15T17:29:44;101580.63;;;6.17;100.00
29461;BME280;16428;47.836;35.106;2022-11-15T17:32:35;101592.06;;;6.08;100.00
29461;BME280;16428;47.836;35.106;2022-11-15T17:35:13;101581.72;;;6.15;100.00
29461;BME280;16428;47.836;35.106;2022-11-15T17:37:48;101587.91;;;6.15;100.00
29461;BME280;16428;47.836;35.106;2022-11-15T17:40:45;101580.53;;;6.08;100.00
29461;BME280;16428;47.836;35.106;2022-11-15T17:43:42;101571.44;;;6.10;100.00
29461;BME280;16428;47.836;35.106;2022-11-15T17:46:13;101574.31;;;6.18;100.00